Richmond Amo, Australia
Current Conditions -  °F | °C
As of 7:00 PM on Thursday 23 Oct 2014 (Local Time) from YSRI Reporting Station
Rain Showers Rain Showers  
Wind Chill: 70°   Ceiling: Unl
Heat Index: 70°   Visibility: 6mi
Dew Point: 61°   Wind: 8mph
Humidity: 73%   Direction: 250°WSW
Pressure: 30.06"   Gusts: NA
Location:  33.6°S, 150.78°E
Report Text: YSRI 230800Z AUTO 25007KT 9999 -SHRA SCT110 21/16 Q1018
Loading
Personal Weather Stations






























Interactive Weather Map
Tropical Storm Tracking
New forecast layout! Learn more

10-Day Weather Forecast

Advertisements
Track Severe Weather on mobile